AirNav  
 
 605 users online  

A34 Dayton Valley Airpark
Dayton/Carson City, Nevada, USA

GOING TO DAYTON/CARSON CITY?


FAA INFORMATION EFFECTIVE 09 NOVEMBER 2017

Location

FAA Identifier: A34
Lat/Long: 39-14-18.3000N / 119-33-19.6000W
39-14.305000N / 119-33.326667W
39.2384167 / -119.5554444
(estimated)
Elevation: 4414.3 ft. / 1345.5 m (surveyed)
Variation: 16E (1985)
From city: 2 miles E of central business district of the associated city
Time zone: UTC -8 (UTC -7 during Daylight Saving Time)
Zip code: 89403

Airport Operations

Airport use: Open to the public
Activation date: 10/1988
Control tower: no
ARTCC: OAKLAND CENTER
FSS: RENO FLIGHT SERVICE STATION
NOTAMs facility: RNO (NOTAM-D service available)
Attendance: UNATNDD
Wind indicator: yes
Segmented circle: yes

Airport Communications

CTAF: 122.9
WX AWOS-3PT at CXP (9 nm W): 119.925 (775-884-4708)
WX AWOS-3PT at MEV (17 nm SW): 119.325 (775-782-6264)
WX ASOS at RNO (18 nm NW): PHONE 775-324-6659

Nearby radio navigation aids

VOR radial/distance  VOR name  Freq  Var
FMGr149/18.2MUSTANG VORTAC117.9016E
HZNr220/30.8HAZEN VORTAC114.1017E
SWRr068/33.4SQUAW VALLEY VOR/DME113.2016E

Airport Services

Runway Information

Runway 5/23

Dimensions: 5343 x 75 ft. / 1629 x 23 m
Surface: asphalt, in excellent condition
Weight bearing capacity: 
Single wheel: 30.0
Double wheel: 70.0
RUNWAY 5  RUNWAY 23
Latitude: 39-14.119342N39-14.491665N
Longitude: 119-33.839815W119-32.814583W
Elevation: 4414.3 ft.4372.4 ft.
Gradient: 0.8% UP
Traffic pattern: rightleft
Runway heading: 049 magnetic, 065 true229 magnetic, 245 true
Displaced threshold: 991 ft.no
Markings: basic, in good conditionbasic, in good condition
Touchdown point: yes, no lightsyes, no lights
Obstructions: 185 ft. tower, lighted, 2000 ft. from runway, 400 ft. right of centerline, 10:1 slope to clear
APCH SLOPE TO DSPLCD THLD 15:1.
none

Airport Ownership and Management from official FAA records

Ownership: Privately-owned
Owner: AIRPARK ESTATES HOMEOWNERS ASSN.
PO BOX 237
DAYTON, NV 89403
Manager: DEAN PATMOR
409 ARMSTRONG COURT
DAYTON, NV 89403
Phone (818) 519-7133

Airport Operational Statistics

Aircraft based on the field: 30
Single engine airplanes: 28
Helicopters: 2
    
Aircraft operations: avg 62/week *
80% local general aviation
12% transient general aviation
7% military
* for 12-month period ending 31 July 2015

Additional Remarks

NOISE ABATEMENT: SMALL ACFT .75 NM SOUTH AT 5,414 FT MSL - 1,000 FT AGL; JETS & LARGE ACFT 1.75 NM SOUTH AT 6,414 FT MSL - 2,000 FT AGL; EXTEND TAKEOFFS BEYOND SCHOOLS & RESIDENTIAL AREAS.
FOR FIELD INFORMATION CALL (818) 519-7133.
PPR FOR AC OVER 12500 LBS, BANNER TOWING, OR SKYDIVING OPERATIONS.
FOR CD CTC NORCAL APCH AT 916-361-0596.

Instrument Procedures

There are no published instrument procedures at A34.

Some nearby airports with instrument procedures:

KCXP - Carson Airport (9 nm W)
KMEV - Minden-Tahoe Airport (17 nm SW)
KSPZ - Silver Springs Airport (17 nm NE)
KRNO - Reno/Tahoe International Airport (18 nm NW)
KTRK - Truckee-Tahoe Airport (28 nm W)
 
Loc | Ops | Rwys | IFR | FBO | Links
Com | Nav | Svcs | Stats | Notes


 
Area around A34 (Dayton Valley Airpark)
 
Road maps at: MapQuest Bing Google
 
Aerial photo
WARNING: Photo may not be current or correct
Aerial photo of A34 (Dayton Valley Airpark)
Photo by Greg Chico
Photo taken 09-Feb-2007

Do you have a better or more recent aerial photo of Dayton Valley Airpark that you would like to share? If so, please send us your photo.

 
Sectional chart

 
Airport distance calculator
Flying to Dayton Valley Airpark? Find the distance to fly.

From to A34

Sunrise and sunset
Times for 18-Nov-2017
 Local
(UTC-8)
 Zulu
(UTC)
Morning civil twilight06:1714:17
Sunrise06:4614:46
Sunset16:4100:41
Evening civil twilight17:1001:10

Current date and time
Zulu (UTC)  19-Nov-2017 04:57:44
Local (UTC-8)  18-Nov-2017 20:57:44
 
METAR
KCXP 
9nm W 
190435Z AUTO 00000KT 10SM CLR 00/M03 A3025 RMK AO2
KMEV 
17nm SW 
190435Z AUTO 12005KT 9SM CLR M01/M02 A3024 RMK AO2
KSPZ 
17nm NE 
SuperAWOS
190435Z AUTO 00000KT 10SM M01/M04 A3017
KRNO 
18nm NW 
190355Z 18003KT 10SM SCT180 BKN230 04/M02 A3023 RMK AO2 SLP245 T00441022
TAF
KCXP 
9nm W 
181720Z 1818/1918 VRB03KT P6SM SKC FM182100 10008KT P6SM SKC FM190100 VRB03KT P6SM SKC
KRNO 
18nm NW 
181720Z 1818/1918 VRB03KT P6SM SKC FM182200 13005KT P6SM SKC FM190100 VRB03KT P6SM SKC
NOTAMs
Click for the latest NOTAMs
NOTAMs are issued by the DoD/FAA and will open in a separate window not controlled by AirNav.

 

 
 

Would you like to see your business listed on this page?

 If your business provides an interesting product or service to pilots, flight crews, aircraft, or users of the Dayton Valley Airpark, you should consider listing it here.  To start the listing process, click on the button below
 
Add a business
 

Other Pages about Dayton Valley Airpark

Update a link
 
Copyright © AirNav, LLC. All rights reserved. Privacy Policy  Contact